Time;durP1;ratioP1;P1;durP2;ratioP2;P2;SDS_P1;SDS_P2;PMS_P1;PMS_P2;Temp;Humidity;BMP_temperature;BMP_pressure;BME280_temperature;BME280_humidity;BME280_pressure;Samples;Min_cycle;Max_cycle;Signal;HPM_P1;HPM_P2
2021/04/28 00:00:28;;;;;;;1.00;1.00;;;;;;;;;;5092428;28;20079;-73
2021/04/28 00:02:55;;;;;;;0.82;0.82;;;;;;;;;;5091316;28;20047;-73
2021/04/28 00:05:21;;;;;;;0.63;0.60;;;;;;;;;;5092222;28;20063;-73
2021/04/28 00:07:47;;;;;;;1.08;0.90;;;;;;;;;;5091683;28;20227;-73
2021/04/28 00:10:14;;;;;;;1.92;1.83;;;;;;;;;;5092030;28;20499;-73
2021/04/28 00:12:41;;;;;;;1.70;1.15;;;;;;;;;;5091388;28;20560;-73
2021/04/28 00:15:08;;;;;;;1.23;1.13;;;;;;;;;;5092122;28;20054;-73
2021/04/28 00:17:35;;;;;;;0.95;0.95;;;;;;;;;;5092396;28;20043;-73
2021/04/28 00:20:01;;;;;;;0.80;0.80;;;;;;;;;;5091338;28;20028;-73
2021/04/28 00:22:27;;;;;;;0.82;0.60;;;;;;;;;;5091919;28;20031;-73
2021/04/28 00:24:53;;;;;;;1.30;1.20;;;;;;;;;;5091364;28;20491;-73
2021/04/28 00:27:19;;;;;;;0.80;0.80;;;;;;;;;;5092107;28;20048;-73
2021/04/28 00:29:45;;;;;;;1.13;1.13;;;;;;;;;;5090848;28;20074;-73
2021/04/28 00:32:11;;;;;;;1.08;1.00;;;;;;;;;;5091712;28;20032;-73
2021/04/28 00:34:37;;;;;;;1.88;1.17;;;;;;;;;;5091284;28;20027;-73
2021/04/28 00:37:03;;;;;;;1.02;0.82;;;;;;;;;;5091241;28;20428;-73
2021/04/28 00:39:29;;;;;;;1.08;0.90;;;;;;;;;;5090814;28;20032;-73
2021/04/28 00:41:56;;;;;;;1.85;0.73;;;;;;;;;;5090863;28;20490;-73
2021/04/28 00:44:22;;;;;;;0.73;0.73;;;;;;;;;;5091391;28;20031;-73
2021/04/28 00:46:48;;;;;;;1.15;1.08;;;;;;;;;;5091049;28;20032;-73
2021/04/28 00:49:14;;;;;;;0.77;0.77;;;;;;;;;;5091412;28;20111;-73
2021/04/28 00:51:40;;;;;;;1.00;0.90;;;;;;;;;;5090973;28;20024;-73
2021/04/28 00:54:07;;;;;;;0.88;0.88;;;;;;;;;;5091113;28;20605;-74
2021/04/28 00:56:33;;;;;;;1.33;1.17;;;;;;;;;;5091502;28;20034;-74
2021/04/28 00:58:59;;;;;;;1.05;1.05;;;;;;;;;;5090679;28;20062;-73
2021/04/28 01:01:25;;;;;;;0.68;0.68;;;;;;;;;;5091031;28;20028;-73
2021/04/28 01:03:51;;;;;;;1.45;1.10;;;;;;;;;;5090550;28;20440;-73
2021/04/28 01:06:17;;;;;;;0.70;0.70;;;;;;;;;;5090670;28;20110;-73
2021/04/28 01:08:44;;;;;;;1.02;1.02;;;;;;;;;;5090276;28;20030;-73
2021/04/28 01:11:11;;;;;;;1.02;1.00;;;;;;;;;;5090613;28;20028;-73
2021/04/28 01:13:37;;;;;;;1.20;0.90;;;;;;;;;;5090673;28;20134;-73
2021/04/28 01:16:03;;;;;;;1.30;1.20;;;;;;;;;;5090757;28;20046;-73
2021/04/28 01:18:29;;;;;;;1.25;1.17;;;;;;;;;;5091135;28;20027;-73
2021/04/28 01:20:55;;;;;;;0.88;0.88;;;;;;;;;;5090292;28;20028;-73
2021/04/28 01:23:21;;;;;;;2.85;0.85;;;;;;;;;;5091030;28;20032;-73
2021/04/28 01:25:50;;;;;;;0.90;0.90;;;;;;;;;;5090631;28;20044;-73
2021/04/28 01:28:19;;;;;;;0.80;0.80;;;;;;;;;;5091172;28;20078;-73
2021/04/28 01:30:56;;;;;;;1.02;0.95;;;;;;;;;;5089833;28;20107;-73
2021/04/28 01:33:25;;;;;;;1.55;0.85;;;;;;;;;;5090451;28;20105;-73
2021/04/28 01:35:53;;;;;;;1.20;0.95;;;;;;;;;;5090476;28;20117;-73
2021/04/28 01:38:19;;;;;;;3.38;1.08;;;;;;;;;;5090393;28;20020;-73
2021/04/28 01:40:45;;;;;;;0.98;0.98;;;;;;;;;;5089058;28;20044;-73
2021/04/28 01:43:12;;;;;;;0.88;0.80;;;;;;;;;;5090251;28;20036;-73
2021/04/28 01:45:38;;;;;;;1.15;1.02;;;;;;;;;;5090131;28;20103;-73
2021/04/28 01:48:05;;;;;;;0.93;0.93;;;;;;;;;;5090419;28;20028;-73
2021/04/28 01:50:32;;;;;;;1.33;0.90;;;;;;;;;;5090082;28;20032;-73
2021/04/28 01:52:58;;;;;;;1.05;1.05;;;;;;;;;;5089864;28;20481;-73
2021/04/28 01:55:24;;;;;;;1.05;0.90;;;;;;;;;;5090266;28;20487;-73
2021/04/28 01:57:51;;;;;;;0.80;0.80;;;;;;;;;;5089751;28;20035;-73
2021/04/28 02:00:21;;;;;;;0.80;0.80;;;;;;;;;;5090261;28;20035;-73
2021/04/28 02:02:48;;;;;;;1.55;1.45;;;;;;;;;;5089419;28;20035;-73
2021/04/28 02:05:14;;;;;;;0.68;0.68;;;;;;;;;;5089996;28;20030;-73
2021/04/28 02:07:42;;;;;;;1.65;0.80;;;;;;;;;;5089523;28;20549;-73
2021/04/28 02:10:08;;;;;;;1.55;0.73;;;;;;;;;;5089999;28;20413;-73
2021/04/28 02:12:35;;;;;;;0.75;0.75;;;;;;;;;;5090181;28;20089;-73
2021/04/28 02:15:02;;;;;;;3.22;1.25;;;;;;;;;;5089373;28;20087;-73
2021/04/28 02:17:30;;;;;;;0.65;0.65;;;;;;;;;;5090211;28;20024;-73
2021/04/28 02:19:56;;;;;;;1.15;1.08;;;;;;;;;;5088968;28;20505;-73
2021/04/28 02:22:25;;;;;;;0.90;0.90;;;;;;;;;;5090107;28;20067;-73
2021/04/28 02:24:51;;;;;;;0.95;0.95;;;;;;;;;;5089142;28;20116;-73
2021/04/28 02:27:17;;;;;;;1.75;1.42;;;;;;;;;;5090063;28;20032;-73
2021/04/28 02:29:45;;;;;;;1.25;1.15;;;;;;;;;;5089143;28;20060;-73
2021/04/28 02:32:11;;;;;;;1.00;0.90;;;;;;;;;;5089728;28;20035;-73
2021/04/28 02:34:37;;;;;;;0.82;0.82;;;;;;;;;;5089160;28;20028;-73
2021/04/28 02:37:03;;;;;;;1.52;0.90;;;;;;;;;;5089577;28;20036;-73
2021/04/28 02:39:32;;;;;;;0.70;0.70;;;;;;;;;;5089430;28;20035;-73
2021/04/28 02:41:59;;;;;;;1.30;1.20;;;;;;;;;;5088641;28;20586;-73
2021/04/28 02:44:26;;;;;;;0.77;0.77;;;;;;;;;;5089474;28;20060;-73
2021/04/28 02:46:54;;;;;;;0.70;0.70;;;;;;;;;;5088945;28;20493;-73
2021/04/28 02:49:21;;;;;;;1.83;1.02;;;;;;;;;;5089271;28;20081;-73
2021/04/28 02:51:48;;;;;;;1.30;1.20;;;;;;;;;;5089012;28;20039;-73
2021/04/28 02:54:15;;;;;;;0.73;0.52;;;;;;;;;;5089609;28;20099;-73
2021/04/28 02:56:41;;;;;;;0.75;0.75;;;;;;;;;;5089042;28;20038;-73
2021/04/28 02:59:08;;;;;;;1.90;1.10;;;;;;;;;;5089299;28;20064;-73
2021/04/28 03:01:35;;;;;;;0.93;0.85;;;;;;;;;;5089515;28;20031;-73
2021/04/28 03:04:01;;;;;;;1.15;0.93;;;;;;;;;;5088845;28;20083;-73
2021/04/28 03:06:27;;;;;;;1.23;0.75;;;;;;;;;;5089470;28;20034;-73
2021/04/28 03:08:53;;;;;;;1.48;1.38;;;;;;;;;;5088727;28;20032;-73
2021/04/28 03:11:22;;;;;;;2.30;1.00;;;;;;;;;;5089519;28;20077;-73
2021/04/28 03:13:48;;;;;;;1.02;0.90;;;;;;;;;;5088648;28;20047;-73
2021/04/28 03:16:14;;;;;;;2.58;1.33;;;;;;;;;;5089263;28;20028;-73
2021/04/28 03:18:40;;;;;;;0.77;0.77;;;;;;;;;;5088183;28;20112;-73
2021/04/28 03:21:08;;;;;;;0.82;0.82;;;;;;;;;;5089161;28;20040;-73
2021/04/28 03:23:34;;;;;;;0.98;0.98;;;;;;;;;;5089210;28;20479;-73
2021/04/28 03:26:00;;;;;;;1.15;0.93;;;;;;;;;;5089154;28;20031;-73
2021/04/28 03:28:26;;;;;;;2.40;1.00;;;;;;;;;;5089701;28;20032;-73
2021/04/28 03:30:52;;;;;;;1.48;1.00;;;;;;;;;;5091660;28;20024;-73
2021/04/28 03:33:18;;;;;;;1.25;0.98;;;;;;;;;;5092845;28;20028;-73
2021/04/28 03:35:44;;;;;;;0.95;0.88;;;;;;;;;;5092117;28;20060;-74
2021/04/28 03:38:10;;;;;;;1.30;1.20;;;;;;;;;;5092806;28;20105;-73
2021/04/28 03:40:37;;;;;;;1.58;1.48;;;;;;;;;;5092305;28;20070;-73
2021/04/28 03:43:03;;;;;;;1.00;1.00;;;;;;;;;;5092234;28;20093;-73
2021/04/28 03:45:31;;;;;;;1.15;1.15;;;;;;;;;;5092709;28;20119;-73
2021/04/28 03:47:57;;;;;;;1.00;1.00;;;;;;;;;;5091984;28;20036;-73
2021/04/28 03:50:23;;;;;;;0.77;0.77;;;;;;;;;;5092502;28;20032;-73
2021/04/28 03:52:49;;;;;;;1.02;0.93;;;;;;;;;;5091978;28;20028;-73
2021/04/28 03:55:15;;;;;;;0.63;0.63;;;;;;;;;;5092629;28;20020;-73
2021/04/28 03:57:42;;;;;;;1.35;1.20;;;;;;;;;;5092057;28;20486;-72
2021/04/28 04:00:08;;;;;;;0.90;0.90;;;;;;;;;;5092004;28;20058;-73
2021/04/28 04:02:34;;;;;;;1.42;1.08;;;;;;;;;;5092378;28;20032;-73
2021/04/28 04:05:00;;;;;;;1.23;1.13;;;;;;;;;;5091634;28;20032;-73
2021/04/28 04:07:27;;;;;;;0.98;0.98;;;;;;;;;;5091979;28;20386;-74
2021/04/28 04:09:53;;;;;;;0.85;0.80;;;;;;;;;;5091563;28;20467;-73
2021/04/28 04:12:19;;;;;;;0.70;0.70;;;;;;;;;;5092413;28;20111;-73
2021/04/28 04:14:45;;;;;;;1.30;1.20;;;;;;;;;;5091568;28;20024;-73
2021/04/28 04:17:12;;;;;;;1.45;1.35;;;;;;;;;;5092119;28;20082;-73
2021/04/28 04:19:38;;;;;;;0.90;0.90;;;;;;;;;;5091804;28;20038;-73
2021/04/28 04:22:04;;;;;;;1.10;1.00;;;;;;;;;;5092073;28;20032;-73
2021/04/28 04:24:30;;;;;;;1.52;1.23;;;;;;;;;;5092088;28;20493;-73
2021/04/28 04:26:56;;;;;;;0.93;0.93;;;;;;;;;;5091107;28;20034;-73
2021/04/28 04:29:22;;;;;;;1.90;1.80;;;;;;;;;;5091934;28;20093;-73
2021/04/28 04:31:48;;;;;;;0.98;0.88;;;;;;;;;;5091625;28;20028;-72
2021/04/28 04:34:14;;;;;;;0.95;0.95;;;;;;;;;;5092156;28;20024;-73
2021/04/28 04:36:40;;;;;;;0.70;0.70;;;;;;;;;;5091086;28;20020;-72
2021/04/28 04:39:07;;;;;;;1.75;1.23;;;;;;;;;;5091412;28;20032;-73
2021/04/28 04:41:34;;;;;;;2.38;0.88;;;;;;;;;;5090428;28;20117;-73
2021/04/28 04:44:00;;;;;;;1.13;0.63;;;;;;;;;;5090810;28;20044;-73
2021/04/28 04:46:26;;;;;;;1.83;1.00;;;;;;;;;;5091753;28;20036;-73
2021/04/28 04:48:52;;;;;;;0.70;0.70;;;;;;;;;;5090463;28;20035;-73
2021/04/28 04:51:18;;;;;;;1.08;1.08;;;;;;;;;;5090977;28;20027;-73
2021/04/28 04:53:44;;;;;;;0.93;0.93;;;;;;;;;;5090614;28;20479;-73
2021/04/28 04:56:10;;;;;;;1.27;0.88;;;;;;;;;;5091699;28;20469;-73
2021/04/28 04:58:36;;;;;;;0.93;0.93;;;;;;;;;;5090935;28;20089;-73
2021/04/28 05:01:04;;;;;;;0.85;0.85;;;;;;;;;;5090724;28;20505;-73
2021/04/28 05:03:30;;;;;;;1.20;1.00;;;;;;;;;;5091636;28;20036;-73
2021/04/28 05:05:56;;;;;;;1.23;1.13;;;;;;;;;;5090739;28;20038;-73
2021/04/28 05:08:22;;;;;;;1.42;1.33;;;;;;;;;;5091046;28;20024;-73
2021/04/28 05:10:48;;;;;;;0.90;0.90;;;;;;;;;;5090317;28;20035;-72
2021/04/28 05:13:14;;;;;;;1.02;0.60;;;;;;;;;;5091295;28;20020;-73
2021/04/28 05:15:40;;;;;;;1.00;0.98;;;;;;;;;;5090755;28;20032;-73
2021/04/28 05:18:06;;;;;;;0.80;0.80;;;;;;;;;;5090918;28;20226;-73
2021/04/28 05:20:32;;;;;;;0.80;0.80;;;;;;;;;;5091027;28;20027;-73
2021/04/28 05:22:58;;;;;;;1.25;1.15;;;;;;;;;;5090180;28;20549;-73
2021/04/28 05:25:25;;;;;;;3.10;1.27;;;;;;;;;;5090873;28;20023;-73
2021/04/28 05:27:51;;;;;;;1.95;1.00;;;;;;;;;;5090002;28;20040;-72
2021/04/28 05:30:17;;;;;;;1.48;1.30;;;;;;;;;;5090524;28;20487;-73
2021/04/28 05:32:44;;;;;;;0.73;0.73;;;;;;;;;;5089863;28;20436;-72
2021/04/28 05:35:11;;;;;;;2.78;1.55;;;;;;;;;;5090586;28;20028;-73
2021/04/28 05:37:37;;;;;;;1.00;1.00;;;;;;;;;;5090157;28;20088;-73
2021/04/28 05:40:05;;;;;;;0.88;0.85;;;;;;;;;;5089511;28;20044;-73
2021/04/28 05:42:31;;;;;;;0.95;0.90;;;;;;;;;;5090534;28;20028;-73
2021/04/28 05:44:57;;;;;;;0.98;0.80;;;;;;;;;;5090107;28;20463;-73
2021/04/28 05:47:23;;;;;;;1.05;1.02;;;;;;;;;;5088266;28;20576;-73
2021/04/28 05:49:49;;;;;;;0.88;0.88;;;;;;;;;;5087779;28;20070;-73
2021/04/28 05:52:16;;;;;;;1.73;1.10;;;;;;;;;;5089771;28;20077;-73
2021/04/28 05:54:42;;;;;;;1.92;1.67;;;;;;;;;;5087324;28;20136;-73
2021/04/28 05:57:09;;;;;;;1.88;1.70;;;;;;;;;;5076336;28;20033;-73
2021/04/28 05:59:35;;;;;;;1.63;1.35;;;;;;;;;;5069278;28;20086;-73
2021/04/28 06:02:02;;;;;;;1.42;1.33;;;;;;;;;;5082326;28;20105;-74
2021/04/28 06:04:28;;;;;;;2.03;1.05;;;;;;;;;;5094400;28;20046;-74
2021/04/28 06:06:54;;;;;;;0.90;0.70;;;;;;;;;;5086873;28;20024;-79
2021/04/28 06:09:20;;;;;;;2.65;1.02;;;;;;;;;;5072435;28;20036;-78
2021/04/28 06:11:46;;;;;;;1.20;1.20;;;;;;;;;;5088512;28;20024;-72
2021/04/28 06:14:12;;;;;;;1.85;1.40;;;;;;;;;;5077312;28;20433;-74
2021/04/28 06:16:38;;;;;;;1.08;0.85;;;;;;;;;;5094503;28;20181;-73
2021/04/28 06:19:05;;;;;;;1.73;1.10;;;;;;;;;;5106644;28;20059;-74
2021/04/28 06:21:31;;;;;;;3.28;1.85;;;;;;;;;;5088864;28;20036;-74
2021/04/28 06:23:57;;;;;;;1.13;0.95;;;;;;;;;;5101006;28;20035;-75
2021/04/28 06:26:23;;;;;;;1.73;1.58;;;;;;;;;;5084656;28;20032;-75
2021/04/28 06:28:49;;;;;;;1.10;1.10;;;;;;;;;;5075888;28;20106;-75
2021/04/28 06:31:15;;;;;;;3.33;1.65;;;;;;;;;;5090067;28;20032;-73
2021/04/28 06:33:44;;;;;;;4.93;2.55;;;;;;;;;;5087795;28;20455;-74
2021/04/28 06:36:11;;;;;;;6.10;2.20;;;;;;;;;;5087991;28;20185;-74
2021/04/28 06:38:37;;;;;;;4.22;2.38;;;;;;;;;;5087162;28;20055;-73
2021/04/28 06:41:04;;;;;;;1.92;1.58;;;;;;;;;;5087306;28;20044;-73
2021/04/28 06:43:30;;;;;;;2.80;1.77;;;;;;;;;;5085413;28;20036;-74
2021/04/28 06:45:57;;;;;;;3.33;1.70;;;;;;;;;;5067079;28;20254;-74
2021/04/28 06:48:24;;;;;;;2.75;1.70;;;;;;;;;;5084530;28;20056;-72
2021/04/28 06:50:50;;;;;;;2.28;2.08;;;;;;;;;;5068964;28;20059;-74
2021/04/28 06:53:16;;;;;;;4.95;2.05;;;;;;;;;;5072779;28;20030;-74
2021/04/28 06:55:42;;;;;;;1.58;1.05;;;;;;;;;;5083006;28;20028;-73
2021/04/28 06:58:08;;;;;;;2.80;1.40;;;;;;;;;;5071256;28;20067;-74
2021/04/28 07:00:34;;;;;;;2.05;1.40;;;;;;;;;;5084445;28;20428;-74
2021/04/28 07:03:00;;;;;;;1.77;1.52;;;;;;;;;;5081736;28;20048;-74
2021/04/28 07:05:26;;;;;;;3.78;1.67;;;;;;;;;;5090944;28;20119;-73
2021/04/28 07:07:53;;;;;;;1.73;1.63;;;;;;;;;;5104541;28;20020;-74
2021/04/28 07:10:19;;;;;;;1.95;1.55;;;;;;;;;;5092434;28;20123;-74
2021/04/28 07:12:45;;;;;;;1.85;1.48;;;;;;;;;;5091274;28;20454;-73
2021/04/28 07:15:12;;;;;;;4.20;1.70;;;;;;;;;;5092448;28;20024;-73
2021/04/28 07:17:38;;;;;;;3.00;1.63;;;;;;;;;;5091501;28;20036;-73
2021/04/28 07:20:06;;;;;;;3.15;1.90;;;;;;;;;;5091839;28;20398;-73
2021/04/28 07:22:32;;;;;;;2.55;2.28;;;;;;;;;;5092041;28;20039;-72
2021/04/28 07:24:58;;;;;;;2.08;1.98;;;;;;;;;;5090891;28;20125;-73
2021/04/28 07:27:24;;;;;;;2.03;1.90;;;;;;;;;;5091475;28;20200;-75
2021/04/28 07:29:51;;;;;;;2.47;1.95;;;;;;;;;;5088974;28;20058;-75
2021/04/28 07:32:17;;;;;;;1.85;1.50;;;;;;;;;;5091560;28;20028;-75
2021/04/28 07:34:43;;;;;;;2.28;1.77;;;;;;;;;;5091296;28;20032;-75
2021/04/28 07:37:09;;;;;;;1.95;1.85;;;;;;;;;;5092664;28;20115;-75
2021/04/28 07:39:36;;;;;;;3.50;1.95;;;;;;;;;;5091611;28;20020;-73
2021/04/28 07:42:03;;;;;;;1.75;1.63;;;;;;;;;;5090651;28;20471;-74
2021/04/28 07:44:32;;;;;;;3.35;1.80;;;;;;;;;;5092642;28;20082;-74
2021/04/28 07:46:58;;;;;;;2.00;1.67;;;;;;;;;;5091543;28;20100;-75
2021/04/28 07:49:25;;;;;;;4.68;2.42;;;;;;;;;;5092039;28;20042;-75
2021/04/28 07:51:51;;;;;;;3.40;2.15;;;;;;;;;;5090883;28;20077;-74
2021/04/28 07:54:18;;;;;;;1.98;1.88;;;;;;;;;;5076931;28;20078;-86
2021/04/28 07:56:44;;;;;;;1.67;1.58;;;;;;;;;;5071208;28;20035;-75
2021/04/28 07:59:11;;;;;;;2.22;2.05;;;;;;;;;;5071629;28;20044;-75
2021/04/28 08:01:37;;;;;;;3.17;2.10;;;;;;;;;;5068771;28;20090;-74
2021/04/28 08:04:04;;;;;;;2.72;2.50;;;;;;;;;;5067783;28;20076;-75
2021/04/28 08:06:30;;;;;;;2.38;1.50;;;;;;;;;;5079110;28;20036;-75
2021/04/28 08:08:56;;;;;;;2.22;2.03;;;;;;;;;;5090004;28;20046;-75
2021/04/28 08:11:22;;;;;;;2.20;1.70;;;;;;;;;;5091111;28;20405;-73
2021/04/28 08:13:49;;;;;;;2.80;2.22;;;;;;;;;;5089901;28;20028;-75
2021/04/28 08:16:15;;;;;;;1.73;1.63;;;;;;;;;;5090512;28;20479;-77
2021/04/28 08:18:41;;;;;;;3.17;2.13;;;;;;;;;;5089971;28;20032;-74
2021/04/28 08:21:07;;;;;;;2.95;2.25;;;;;;;;;;5090524;28;20020;-75
2021/04/28 08:23:36;;;;;;;2.33;2.17;;;;;;;;;;5090720;28;20470;-74
2021/04/28 08:26:02;;;;;;;2.20;2.00;;;;;;;;;;5090480;28;20098;-75
2021/04/28 08:28:29;;;;;;;1.88;1.73;;;;;;;;;;5090900;28;20031;-73
2021/04/28 08:30:55;;;;;;;3.20;2.35;;;;;;;;;;5089747;28;20096;-74
2021/04/28 08:33:21;;;;;;;4.15;2.72;;;;;;;;;;5091216;28;20110;-75
2021/04/28 08:35:47;;;;;;;2.28;1.90;;;;;;;;;;5089649;28;20024;-75
2021/04/28 08:38:13;;;;;;;2.30;2.10;;;;;;;;;;5090580;28;20059;-75
2021/04/28 08:40:39;;;;;;;3.33;2.25;;;;;;;;;;5089753;28;20073;-75
2021/04/28 08:43:06;;;;;;;4.63;1.98;;;;;;;;;;5090260;28;20036;-75
2021/04/28 08:45:32;;;;;;;2.22;1.85;;;;;;;;;;5090416;28;20115;-75
2021/04/28 08:47:59;;;;;;;2.55;2.35;;;;;;;;;;5089619;28;20121;-73
2021/04/28 08:50:25;;;;;;;2.70;1.75;;;;;;;;;;5089983;28;20031;-77
2021/04/28 08:52:52;;;;;;;2.92;2.40;;;;;;;;;;5065469;28;20031;-76
2021/04/28 08:55:18;;;;;;;2.90;2.25;;;;;;;;;;5069947;28;20021;-76
2021/04/28 08:57:45;;;;;;;2.78;2.10;;;;;;;;;;5069732;28;20020;-75
2021/04/28 09:00:11;;;;;;;2.30;2.10;;;;;;;;;;5070299;28;20052;-73
2021/04/28 09:02:50;;;;;;;4.55;3.20;;;;;;;;;;5088046;28;20055;-72
2021/04/28 09:05:16;;;;;;;3.40;2.45;;;;;;;;;;5110185;28;20058;-72
2021/04/28 09:07:43;;;;;;;6.00;2.30;;;;;;;;;;5105637;28;20024;-71
2021/04/28 09:10:13;;;;;;;3.17;2.38;;;;;;;;;;5067301;28;20025;-73
2021/04/28 09:12:40;;;;;;;4.53;2.85;;;;;;;;;;5067313;28;20035;-72
2021/04/28 09:15:07;;;;;;;2.60;2.10;;;;;;;;;;5068312;28;20365;-73
2021/04/28 09:17:50;;;;;;;2.10;1.90;;;;;;;;;;5069370;28;20070;-73
2021/04/28 09:20:58;;;;;;;2.35;2.00;;;;;;;;;;5068350;28;20028;-72
2021/04/28 09:23:16;;;;;;;3.13;2.67;;;;;;;;;;5083048;28;20044;-73
2021/04/28 09:25:47;;;;;;;2.85;2.00;;;;;;;;;;5071554;28;20070;-72
2021/04/28 09:28:24;;;;;;;2.72;2.28;;;;;;;;;;5103337;28;20031;-73
2021/04/28 09:30:50;;;;;;;2.60;2.40;;;;;;;;;;5081082;28;20035;-73
2021/04/28 09:33:16;;;;;;;2.42;2.22;;;;;;;;;;5073781;28;20051;-73
2021/04/28 09:35:42;;;;;;;3.20;2.20;;;;;;;;;;5109098;28;20031;-72
2021/04/28 09:38:08;;;;;;;3.67;2.22;;;;;;;;;;5110160;28;20491;-73
2021/04/28 09:40:40;;;;;;;2.42;2.05;;;;;;;;;;5109291;28;20051;-74
2021/04/28 09:43:07;;;;;;;2.92;1.55;;;;;;;;;;5087044;28;20067;-74
2021/04/28 09:45:46;;;;;;;3.67;2.47;;;;;;;;;;5069118;28;20048;-74
2021/04/28 09:48:17;;;;;;;2.47;2.28;;;;;;;;;;5093055;28;20073;-73
2021/04/28 09:50:43;;;;;;;4.15;2.20;;;;;;;;;;5108852;28;20027;-73
2021/04/28 09:53:21;;;;;;;5.93;2.97;;;;;;;;;;5095602;28;20028;-73
2021/04/28 09:55:47;;;;;;;4.85;2.80;;;;;;;;;;5088576;28;20448;-73
2021/04/28 09:58:13;;;;;;;3.67;2.58;;;;;;;;;;5089570;28;20105;-73
2021/04/28 10:00:40;;;;;;;2.65;2.45;;;;;;;;;;5087729;28;20017;-73
2021/04/28 10:03:08;;;;;;;9.02;2.80;;;;;;;;;;5084948;28;20068;-73
2021/04/28 10:05:40;;;;;;;4.10;2.42;;;;;;;;;;5068977;28;20123;-74
2021/04/28 10:08:07;;;;;;;3.05;2.70;;;;;;;;;;5072905;28;20085;-73
2021/04/28 10:10:33;;;;;;;20.92;2.25;;;;;;;;;;5088885;28;20471;-73
2021/04/28 10:12:59;;;;;;;7.10;3.15;;;;;;;;;;5088646;28;20062;-73
2021/04/28 10:15:25;;;;;;;5.93;2.78;;;;;;;;;;5088850;28;20432;-72
2021/04/28 10:17:52;;;;;;;3.83;2.72;;;;;;;;;;5095615;28;20027;-72
2021/04/28 10:20:18;;;;;;;5.95;2.75;;;;;;;;;;5068709;28;20406;-72
2021/04/28 10:22:44;;;;;;;3.03;2.38;;;;;;;;;;5084870;28;20036;-72
2021/04/28 10:25:11;;;;;;;2.40;2.20;;;;;;;;;;5088979;28;20016;-73
2021/04/28 10:27:39;;;;;;;2.40;2.20;;;;;;;;;;5089282;28;20040;-70
2021/04/28 10:30:06;;;;;;;2.60;2.35;;;;;;;;;;5107713;28;20020;-71
2021/04/28 10:32:34;;;;;;;2.63;2.33;;;;;;;;;;5106594;28;20039;-71
2021/04/28 10:35:02;;;;;;;2.05;1.95;;;;;;;;;;5109113;28;20406;-70
2021/04/28 10:37:29;;;;;;;2.58;2.38;;;;;;;;;;5109403;28;20557;-70
2021/04/28 10:39:56;;;;;;;2.63;1.98;;;;;;;;;;5110044;28;20055;-70
2021/04/28 10:42:25;;;;;;;2.20;1.85;;;;;;;;;;5114470;28;20528;-70
2021/04/28 10:44:51;;;;;;;4.25;3.00;;;;;;;;;;5112522;28;20130;-70
2021/04/28 10:47:23;;;;;;;3.08;2.13;;;;;;;;;;5114486;28;20024;-70
2021/04/28 10:50:03;;;;;;;4.00;2.75;;;;;;;;;;5113034;28;20023;-73
2021/04/28 10:52:31;;;;;;;3.47;2.70;;;;;;;;;;5114497;28;20020;-71
2021/04/28 10:54:57;;;;;;;2.10;1.90;;;;;;;;;;5113075;28;20031;-72
2021/04/28 10:57:36;;;;;;;2.60;2.40;;;;;;;;;;5114183;28;20089;-72
2021/04/28 11:00:23;;;;;;;2.13;1.98;;;;;;;;;;5112900;28;20032;-72
2021/04/28 11:02:49;;;;;;;2.75;2.28;;;;;;;;;;5073345;28;20039;-72
2021/04/28 11:05:35;;;;;;;3.17;2.88;;;;;;;;;;5073041;28;20552;-72
2021/04/28 11:08:01;;;;;;;2.70;2.45;;;;;;;;;;5088189;28;20042;-72
2021/04/28 11:10:28;;;;;;;3.55;1.95;;;;;;;;;;5093298;28;20032;-72
2021/04/28 11:13:03;;;;;;;5.32;3.05;;;;;;;;;;5092486;28;20538;-72
2021/04/28 11:15:44;;;;;;;3.60;2.15;;;;;;;;;;5092845;28;20030;-72
2021/04/28 11:18:28;;;;;;;2.30;1.70;;;;;;;;;;5093412;28;20024;-72
2021/04/28 11:21:09;;;;;;;2.20;2.00;;;;;;;;;;5092094;28;20024;-72
2021/04/28 11:23:36;;;;;;;2.97;2.40;;;;;;;;;;5092992;28;20118;-72
2021/04/28 11:26:20;;;;;;;2.55;2.33;;;;;;;;;;5092335;28;20028;-72
2021/04/28 11:28:49;;;;;;;3.90;2.63;;;;;;;;;;5091565;28;20068;-72
2021/04/28 11:31:22;;;;;;;2.83;2.63;;;;;;;;;;5092688;28;20559;-72
2021/04/28 11:33:48;;;;;;;2.53;2.17;;;;;;;;;;5090979;28;20032;-72
2021/04/28 11:36:16;;;;;;;2.38;2.10;;;;;;;;;;5074310;28;20607;-73
2021/04/28 11:38:44;;;;;;;4.10;2.30;;;;;;;;;;5070561;28;20024;-72
2021/04/28 11:41:11;;;;;;;2.45;2.15;;;;;;;;;;5085909;28;20043;-73
2021/04/28 11:43:37;;;;;;;3.42;2.92;;;;;;;;;;5092102;28;20131;-72
2021/04/28 11:46:06;;;;;;;2.67;2.10;;;;;;;;;;5092110;28;20039;-72
2021/04/28 11:48:33;;;;;;;4.07;3.05;;;;;;;;;;5092234;28;20031;-73
2021/04/28 11:51:00;;;;;;;2.45;2.25;;;;;;;;;;5089190;28;20036;-72
2021/04/28 11:53:27;;;;;;;3.25;1.92;;;;;;;;;;5093086;28;20024;-73
2021/04/28 11:55:53;;;;;;;3.58;2.22;;;;;;;;;;5091667;28;20034;-72
2021/04/28 11:58:25;;;;;;;2.63;2.10;;;;;;;;;;5091814;28;20028;-73
2021/04/28 12:00:59;;;;;;;3.67;2.55;;;;;;;;;;5091867;28;20032;-72
2021/04/28 12:03:25;;;;;;;2.50;2.30;;;;;;;;;;5071882;28;20112;-72
2021/04/28 12:05:51;;;;;;;2.35;2.15;;;;;;;;;;5069501;28;20056;-73
2021/04/28 12:08:18;;;;;;;3.47;2.22;;;;;;;;;;5071398;28;20044;-72
2021/04/28 12:11:10;;;;;;;2.78;2.58;;;;;;;;;;5077957;28;20398;-72
2021/04/28 12:13:36;;;;;;;2.92;2.65;;;;;;;;;;5089900;28;20032;-70
2021/04/28 12:16:04;;;;;;;9.95;3.17;;;;;;;;;;5091546;28;20035;-73
2021/04/28 12:18:32;;;;;;;4.68;2.42;;;;;;;;;;5092348;28;20051;-72
2021/04/28 12:20:59;;;;;;;9.20;2.70;;;;;;;;;;5090963;28;20383;-72
2021/04/28 12:23:25;;;;;;;8.50;2.60;;;;;;;;;;5092005;28;20066;-72
2021/04/28 12:25:51;;;;;;;5.13;2.78;;;;;;;;;;5091139;28;20020;-72
2021/04/28 12:28:17;;;;;;;3.28;2.83;;;;;;;;;;5091318;28;20024;-73
2021/04/28 12:30:43;;;;;;;5.20;2.63;;;;;;;;;;5090708;28;20027;-72
2021/04/28 12:33:09;;;;;;;6.85;2.42;;;;;;;;;;5110478;28;20020;-73
2021/04/28 12:35:36;;;;;;;6.20;2.28;;;;;;;;;;5111654;28;20030;-73
2021/04/28 12:38:08;;;;;;;3.33;2.42;;;;;;;;;;5111135;28;20054;-73
2021/04/28 12:40:39;;;;;;;4.43;2.53;;;;;;;;;;5111534;28;20410;-73
2021/04/28 12:43:07;;;;;;;3.03;2.72;;;;;;;;;;5111867;28;20088;-73
2021/04/28 12:45:34;;;;;;;2.97;1.80;;;;;;;;;;5112104;28;20110;-73
2021/04/28 12:48:10;;;;;;;5.45;2.33;;;;;;;;;;5111347;28;20027;-73
2021/04/28 12:50:37;;;;;;;4.85;2.88;;;;;;;;;;5111204;28;20024;-73
2021/04/28 12:53:10;;;;;;;4.60;2.67;;;;;;;;;;5111185;28;20034;-72
2021/04/28 12:55:37;;;;;;;4.15;2.25;;;;;;;;;;5111500;28;20024;-72
2021/04/28 12:58:05;;;;;;;5.35;2.58;;;;;;;;;;5111332;28;20069;-73
2021/04/28 13:00:35;;;;;;;2.70;2.50;;;;;;;;;;5111488;28;20114;-72
2021/04/28 13:03:05;;;;;;;2.53;2.33;;;;;;;;;;5081297;28;20604;-73
2021/04/28 13:05:32;;;;;;;4.75;1.92;;;;;;;;;;5070493;28;20127;-73
2021/04/28 13:08:15;;;;;;;4.13;1.60;;;;;;;;;;5069540;28;20036;-73
2021/04/28 13:10:57;;;;;;;2.28;2.03;;;;;;;;;;5075134;28;20086;-72
2021/04/28 13:13:50;;;;;;;6.68;3.00;;;;;;;;;;5068893;28;20028;-72
2021/04/28 13:16:36;;;;;;;3.92;2.65;;;;;;;;;;5068474;28;20395;-73
2021/04/28 13:19:08;;;;;;;4.50;2.38;;;;;;;;;;5071060;28;20067;-73
2021/04/28 13:21:43;;;;;;;3.20;2.28;;;;;;;;;;5092824;28;20035;-73
2021/04/28 13:24:14;;;;;;;2.50;2.28;;;;;;;;;;5077580;28;20544;-72
2021/04/28 13:26:57;;;;;;;2.38;2.00;;;;;;;;;;5081083;28;20510;-72
2021/04/28 13:29:23;;;;;;;3.00;2.75;;;;;;;;;;5078670;28;20078;-73
2021/04/28 13:31:50;;;;;;;3.22;1.90;;;;;;;;;;5088463;28;20059;-72
2021/04/28 13:34:26;;;;;;;6.68;2.13;;;;;;;;;;5090481;28;20378;-72
2021/04/28 13:36:53;;;;;;;3.05;2.30;;;;;;;;;;5088775;28;20035;-73
2021/04/28 13:39:30;;;;;;;4.68;2.28;;;;;;;;;;5090274;28;20095;-72
2021/04/28 13:42:00;;;;;;;4.03;2.67;;;;;;;;;;5089136;28;20444;-73
2021/04/28 13:44:27;;;;;;;2.25;2.03;;;;;;;;;;5091302;28;20035;-73
2021/04/28 13:46:55;;;;;;;2.60;2.33;;;;;;;;;;5089296;28;20024;-72
2021/04/28 13:49:22;;;;;;;8.10;2.53;;;;;;;;;;5090184;28;20035;-72
2021/04/28 13:51:52;;;;;;;3.85;1.98;;;;;;;;;;5089514;28;20042;-72
2021/04/28 13:54:18;;;;;;;3.65;2.58;;;;;;;;;;5090366;28;20067;-72
2021/04/28 13:56:44;;;;;;;13.75;3.40;;;;;;;;;;5070505;28;20416;-72
2021/04/28 13:59:10;;;;;;;3.63;2.88;;;;;;;;;;5089686;28;20020;-73
2021/04/28 14:01:36;;;;;;;2.47;2.25;;;;;;;;;;5089525;28;20024;-72
2021/04/28 14:04:03;;;;;;;4.60;2.95;;;;;;;;;;5089439;28;20036;-73
2021/04/28 14:06:29;;;;;;;2.90;2.70;;;;;;;;;;5088771;28;20107;-73
2021/04/28 14:08:55;;;;;;;2.90;2.65;;;;;;;;;;5088476;28;20051;-72
2021/04/28 14:11:23;;;;;;;3.10;2.25;;;;;;;;;;5088572;28;20031;-73
2021/04/28 14:13:50;;;;;;;2.05;1.85;;;;;;;;;;5088473;28;20047;-72
2021/04/28 14:16:16;;;;;;;2.63;2.42;;;;;;;;;;5089107;28;20024;-72
2021/04/28 14:18:42;;;;;;;2.92;2.63;;;;;;;;;;5088239;28;20023;-72
2021/04/28 14:21:09;;;;;;;2.75;2.28;;;;;;;;;;5088854;28;20027;-72
2021/04/28 14:23:35;;;;;;;3.70;2.15;;;;;;;;;;5088714;28;20419;-72
2021/04/28 14:26:01;;;;;;;2.65;2.33;;;;;;;;;;5103911;28;20138;-73
2021/04/28 14:28:27;;;;;;;4.03;2.25;;;;;;;;;;5109623;28;20501;-73
2021/04/28 14:30:53;;;;;;;4.85;2.42;;;;;;;;;;5108351;28;20023;-72
2021/04/28 14:33:19;;;;;;;2.83;2.58;;;;;;;;;;5093734;28;20037;-72
2021/04/28 14:35:45;;;;;;;2.63;2.42;;;;;;;;;;5088052;28;20039;-72
2021/04/28 14:38:12;;;;;;;1.92;1.83;;;;;;;;;;5088814;28;20032;-72
2021/04/28 14:40:38;;;;;;;9.65;2.67;;;;;;;;;;5081310;28;20521;-72
2021/04/28 14:43:04;;;;;;;2.75;2.00;;;;;;;;;;5067584;28;20391;-72
2021/04/28 14:45:30;;;;;;;2.92;2.60;;;;;;;;;;5069265;28;20464;-72